sensor_id;sensor_type;location;lat;lon;timestamp;temperature;humidity
44894;DHT22;30625;52.206;21.030;2022-09-06T00:01:22;13.30;68.50
44894;DHT22;30625;52.206;21.030;2022-09-06T00:03:48;13.30;68.90
44894;DHT22;30625;52.206;21.030;2022-09-06T00:06:15;13.30;68.50
44894;DHT22;30625;52.206;21.030;2022-09-06T00:08:42;13.30;68.60
44894;DHT22;30625;52.206;21.030;2022-09-06T00:11:08;13.30;69.40
44894;DHT22;30625;52.206;21.030;2022-09-06T00:13:34;13.20;68.70
44894;DHT22;30625;52.206;21.030;2022-09-06T00:16:07;13.20;69.10
44894;DHT22;30625;52.206;21.030;2022-09-06T00:18:32;15.00;69.70
44894;DHT22;30625;52.206;21.030;2022-09-06T00:20:58;13.10;69.00
44894;DHT22;30625;52.206;21.030;2022-09-06T00:23:23;13.10;69.90
44894;DHT22;30625;52.206;21.030;2022-09-06T00:25:49;13.10;69.30
44894;DHT22;30625;52.206;21.030;2022-09-06T00:28:15;13.10;69.40
44894;DHT22;30625;52.206;21.030;2022-09-06T00:30:40;13.00;69.30
44894;DHT22;30625;52.206;21.030;2022-09-06T00:33:06;12.90;69.90
44894;DHT22;30625;52.206;21.030;2022-09-06T00:35:32;12.90;69.00
44894;DHT22;30625;52.206;21.030;2022-09-06T00:37:58;12.90;69.40
44894;DHT22;30625;52.206;21.030;2022-09-06T00:40:24;12.80;68.70
44894;DHT22;30625;52.206;21.030;2022-09-06T00:42:50;12.90;69.50
44894;DHT22;30625;52.206;21.030;2022-09-06T00:45:16;12.80;69.50
44894;DHT22;30625;52.206;21.030;2022-09-06T00:47:45;12.70;69.60
44894;DHT22;30625;52.206;21.030;2022-09-06T00:50:11;12.20;68.40
44894;DHT22;30625;52.206;21.030;2022-09-06T00:52:38;12.70;69.40
44894;DHT22;30625;52.206;21.030;2022-09-06T00:55:05;12.70;69.00
44894;DHT22;30625;52.206;21.030;2022-09-06T00:57:30;12.70;68.40
44894;DHT22;30625;52.206;21.030;2022-09-06T00:59:57;12.70;68.70
44894;DHT22;30625;52.206;21.030;2022-09-06T01:02:22;12.70;69.90
44894;DHT22;30625;52.206;21.030;2022-09-06T01:04:48;12.70;70.00
44894;DHT22;30625;52.206;21.030;2022-09-06T01:10:07;12.70;69.70
44894;DHT22;30625;52.206;21.030;2022-09-06T01:13:01;12.70;69.50
44894;DHT22;30625;52.206;21.030;2022-09-06T01:30:45;12.50;70.20
44894;DHT22;30625;52.206;21.030;2022-09-06T01:33:13;12.50;71.10
44894;DHT22;30625;52.206;21.030;2022-09-06T01:38:12;12.60;71.10
44894;DHT22;30625;52.206;21.030;2022-09-06T01:40:39;12.50;71.10
44894;DHT22;30625;52.206;21.030;2022-09-06T01:43:05;12.40;71.50
44894;DHT22;30625;52.206;21.030;2022-09-06T01:48:17;12.20;71.40
44894;DHT22;30625;52.206;21.030;2022-09-06T01:53:24;12.30;71.80
44894;DHT22;30625;52.206;21.030;2022-09-06T01:55:57;12.20;71.70
44894;DHT22;30625;52.206;21.030;2022-09-06T02:03:37;12.10;72.70
44894;DHT22;30625;52.206;21.030;2022-09-06T02:06:06;12.00;72.60
44894;DHT22;30625;52.206;21.030;2022-09-06T02:08:40;12.00;73.30
44894;DHT22;30625;52.206;21.030;2022-09-06T02:11:06;12.00;73.30
44894;DHT22;30625;52.206;21.030;2022-09-06T02:13:36;12.10;73.10
44894;DHT22;30625;52.206;21.030;2022-09-06T02:16:04;12.00;73.20
44894;DHT22;30625;52.206;21.030;2022-09-06T02:18:30;11.90;73.10
44894;DHT22;30625;52.206;21.030;2022-09-06T02:20:58;11.90;72.80
44894;DHT22;30625;52.206;21.030;2022-09-06T02:23:26;11.90;73.50
44894;DHT22;30625;52.206;21.030;2022-09-06T02:25:53;12.00;73.40
44894;DHT22;30625;52.206;21.030;2022-09-06T02:28:20;12.00;73.50
44894;DHT22;30625;52.206;21.030;2022-09-06T02:30:49;12.00;73.10
44894;DHT22;30625;52.206;21.030;2022-09-06T02:33:18;12.00;73.10
44894;DHT22;30625;52.206;21.030;2022-09-06T02:35:45;11.90;73.60
44894;DHT22;30625;52.206;21.030;2022-09-06T02:38:11;11.90;74.00
44894;DHT22;30625;52.206;21.030;2022-09-06T02:40:37;11.90;74.10
44894;DHT22;30625;52.206;21.030;2022-09-06T02:43:03;11.90;74.30
44894;DHT22;30625;52.206;21.030;2022-09-06T02:45:28;11.80;74.40
44894;DHT22;30625;52.206;21.030;2022-09-06T02:47:54;11.80;74.60
44894;DHT22;30625;52.206;21.030;2022-09-06T02:50:19;11.90;75.10
44894;DHT22;30625;52.206;21.030;2022-09-06T02:52:45;11.80;74.90
44894;DHT22;30625;52.206;21.030;2022-09-06T02:55:10;11.90;75.00
44894;DHT22;30625;52.206;21.030;2022-09-06T02:57:36;11.80;74.80
44894;DHT22;30625;52.206;21.030;2022-09-06T03:00:02;11.80;74.80
44894;DHT22;30625;52.206;21.030;2022-09-06T03:02:28;11.90;74.80
44894;DHT22;30625;52.206;21.030;2022-09-06T03:04:54;11.90;75.00
44894;DHT22;30625;52.206;21.030;2022-09-06T03:07:19;11.90;75.10
44894;DHT22;30625;52.206;21.030;2022-09-06T03:09:45;11.90;75.00
44894;DHT22;30625;52.206;21.030;2022-09-06T03:12:10;11.90;74.70
44894;DHT22;30625;52.206;21.030;2022-09-06T03:14:36;11.80;74.40
44894;DHT22;30625;52.206;21.030;2022-09-06T03:17:02;11.80;74.80
44894;DHT22;30625;52.206;21.030;2022-09-06T03:19:27;11.80;74.50
44894;DHT22;30625;52.206;21.030;2022-09-06T03:21:53;11.80;75.00
44894;DHT22;30625;52.206;21.030;2022-09-06T03:24:19;11.80;74.80
44894;DHT22;30625;52.206;21.030;2022-09-06T03:26:44;12.10;75.00
44894;DHT22;30625;52.206;21.030;2022-09-06T03:29:10;11.70;75.50
44894;DHT22;30625;52.206;21.030;2022-09-06T03:31:35;12.30;75.60
44894;DHT22;30625;52.206;21.030;2022-09-06T03:34:01;11.70;75.10
44894;DHT22;30625;52.206;21.030;2022-09-06T03:36:26;11.80;75.20
44894;DHT22;30625;52.206;21.030;2022-09-06T03:38:52;11.80;75.00
44894;DHT22;30625;52.206;21.030;2022-09-06T03:41:18;12.50;75.80
44894;DHT22;30625;52.206;21.030;2022-09-06T03:43:44;11.70;75.10
44894;DHT22;30625;52.206;21.030;2022-09-06T03:46:09;11.70;75.70
44894;DHT22;30625;52.206;21.030;2022-09-06T03:48:35;11.80;76.20
44894;DHT22;30625;52.206;21.030;2022-09-06T03:51:00;11.90;75.60
44894;DHT22;30625;52.206;21.030;2022-09-06T03:53:27;11.80;75.30
44894;DHT22;30625;52.206;21.030;2022-09-06T03:55:54;11.90;75.80
44894;DHT22;30625;52.206;21.030;2022-09-06T03:58:20;12.20;75.90
44894;DHT22;30625;52.206;21.030;2022-09-06T04:00:46;12.00;75.50
44894;DHT22;30625;52.206;21.030;2022-09-06T04:03:12;11.90;75.10
44894;DHT22;30625;52.206;21.030;2022-09-06T04:05:38;12.00;75.10
44894;DHT22;30625;52.206;21.030;2022-09-06T04:08:03;12.00;74.80
44894;DHT22;30625;52.206;21.030;2022-09-06T04:10:30;12.00;72.70
44894;DHT22;30625;52.206;21.030;2022-09-06T04:12:56;12.00;72.80
44894;DHT22;30625;52.206;21.030;2022-09-06T04:15:21;12.10;74.50
44894;DHT22;30625;52.206;21.030;2022-09-06T04:17:47;12.00;72.00
44894;DHT22;30625;52.206;21.030;2022-09-06T04:20:13;11.90;72.00
44894;DHT22;30625;52.206;21.030;2022-09-06T04:22:39;12.00;73.10
44894;DHT22;30625;52.206;21.030;2022-09-06T04:25:05;12.00;72.30
44894;DHT22;30625;52.206;21.030;2022-09-06T04:27:31;12.10;73.00
44894;DHT22;30625;52.206;21.030;2022-09-06T04:29:56;12.10;72.60
44894;DHT22;30625;52.206;21.030;2022-09-06T04:32:22;12.10;72.60
44894;DHT22;30625;52.206;21.030;2022-09-06T04:34:47;12.00;72.30
44894;DHT22;30625;52.206;21.030;2022-09-06T04:37:13;12.00;72.30
44894;DHT22;30625;52.206;21.030;2022-09-06T04:39:42;12.10;73.10
44894;DHT22;30625;52.206;21.030;2022-09-06T04:42:08;12.10;72.10
44894;DHT22;30625;52.206;21.030;2022-09-06T04:44:33;12.10;73.00
44894;DHT22;30625;52.206;21.030;2022-09-06T04:47:05;12.10;72.30
44894;DHT22;30625;52.206;21.030;2022-09-06T04:49:31;12.20;72.60
44894;DHT22;30625;52.206;21.030;2022-09-06T04:51:57;12.20;71.80
44894;DHT22;30625;52.206;21.030;2022-09-06T04:54:22;12.20;72.10
44894;DHT22;30625;52.206;21.030;2022-09-06T04:56:48;12.20;73.30
44894;DHT22;30625;52.206;21.030;2022-09-06T04:59:13;12.20;72.20
44894;DHT22;30625;52.206;21.030;2022-09-06T05:01:39;12.20;72.30
44894;DHT22;30625;52.206;21.030;2022-09-06T05:04:04;12.30;71.80
44894;DHT22;30625;52.206;21.030;2022-09-06T05:06:30;12.20;71.90
44894;DHT22;30625;52.206;21.030;2022-09-06T05:08:55;12.10;71.60
44894;DHT22;30625;52.206;21.030;2022-09-06T05:11:21;12.20;72.60
44894;DHT22;30625;52.206;21.030;2022-09-06T05:13:47;12.30;73.50
44894;DHT22;30625;52.206;21.030;2022-09-06T05:16:14;12.20;71.50
44894;DHT22;30625;52.206;21.030;2022-09-06T05:18:39;12.30;71.80
44894;DHT22;30625;52.206;21.030;2022-09-06T05:21:05;12.40;72.20
44894;DHT22;30625;52.206;21.030;2022-09-06T05:23:31;12.40;72.40
44894;DHT22;30625;52.206;21.030;2022-09-06T05:25:57;12.40;71.10
44894;DHT22;30625;52.206;21.030;2022-09-06T05:28:22;15.20;72.70
44894;DHT22;30625;52.206;21.030;2022-09-06T05:30:48;12.50;70.90
44894;DHT22;30625;52.206;21.030;2022-09-06T05:33:18;12.60;71.00
44894;DHT22;30625;52.206;21.030;2022-09-06T05:35:43;12.80;70.10
44894;DHT22;30625;52.206;21.030;2022-09-06T05:38:09;13.20;68.90
44894;DHT22;30625;52.206;21.030;2022-09-06T05:40:34;13.80;66.90
44894;DHT22;30625;52.206;21.030;2022-09-06T05:43:00;14.50;65.10
44894;DHT22;30625;52.206;21.030;2022-09-06T05:45:25;15.50;62.80
44894;DHT22;30625;52.206;21.030;2022-09-06T05:47:51;16.20;59.70
44894;DHT22;30625;52.206;21.030;2022-09-06T05:50:16;19.80;59.00
44894;DHT22;30625;52.206;21.030;2022-09-06T05:52:42;17.50;56.50
44894;DHT22;30625;52.206;21.030;2022-09-06T05:55:08;16.20;54.70
44894;DHT22;30625;52.206;21.030;2022-09-06T05:57:33;16.70;51.30
44894;DHT22;30625;52.206;21.030;2022-09-06T05:59:59;19.50;51.90
44894;DHT22;30625;52.206;21.030;2022-09-06T06:02:24;20.30;51.70
44894;DHT22;30625;52.206;21.030;2022-09-06T06:04:50;20.80;48.50
44894;DHT22;30625;52.206;21.030;2022-09-06T06:07:18;21.00;48.10
44894;DHT22;30625;52.206;21.030;2022-09-06T06:09:44;21.40;47.80
44894;DHT22;30625;52.206;21.030;2022-09-06T06:12:09;21.80;47.10
44894;DHT22;30625;52.206;21.030;2022-09-06T06:14:35;22.00;46.90
44894;DHT22;30625;52.206;21.030;2022-09-06T06:17:01;22.60;46.20
44894;DHT22;30625;52.206;21.030;2022-09-06T06:19:27;22.80;44.70
44894;DHT22;30625;52.206;21.030;2022-09-06T06:21:53;22.80;44.10
44894;DHT22;30625;52.206;21.030;2022-09-06T06:24:21;23.40;43.10
44894;DHT22;30625;52.206;21.030;2022-09-06T06:26:46;23.60;42.70
44894;DHT22;30625;52.206;21.030;2022-09-06T06:29:12;23.60;43.10
44894;DHT22;30625;52.206;21.030;2022-09-06T06:31:38;24.20;42.20
44894;DHT22;30625;52.206;21.030;2022-09-06T06:34:04;24.20;41.10
44894;DHT22;30625;52.206;21.030;2022-09-06T06:36:30;24.30;40.80
44894;DHT22;30625;52.206;21.030;2022-09-06T06:38:58;24.60;41.40
44894;DHT22;30625;52.206;21.030;2022-09-06T06:41:24;25.40;40.30
44894;DHT22;30625;52.206;21.030;2022-09-06T06:43:53;25.80;39.20
44894;DHT22;30625;52.206;21.030;2022-09-06T06:46:20;25.70;38.10
44894;DHT22;30625;52.206;21.030;2022-09-06T06:48:45;24.90;39.50
44894;DHT22;30625;52.206;21.030;2022-09-06T06:51:12;24.40;40.10
44894;DHT22;30625;52.206;21.030;2022-09-06T06:53:38;23.70;40.80
44894;DHT22;30625;52.206;21.030;2022-09-06T06:58:39;22.00;43.10
44894;DHT22;30625;52.206;21.030;2022-09-06T07:01:04;21.10;45.10
44894;DHT22;30625;52.206;21.030;2022-09-06T07:03:30;20.10;44.70
44894;DHT22;30625;52.206;21.030;2022-09-06T07:05:56;20.00;46.60
44894;DHT22;30625;52.206;21.030;2022-09-06T07:08:21;19.70;47.30
44894;DHT22;30625;52.206;21.030;2022-09-06T07:10:47;19.20;48.10
44894;DHT22;30625;52.206;21.030;2022-09-06T07:13:13;19.00;48.00
44894;DHT22;30625;52.206;21.030;2022-09-06T07:15:38;18.40;49.60
44894;DHT22;30625;52.206;21.030;2022-09-06T07:18:04;18.30;49.60
44894;DHT22;30625;52.206;21.030;2022-09-06T07:20:30;15.90;49.00
44894;DHT22;30625;52.206;21.030;2022-09-06T07:22:59;17.90;50.40
44894;DHT22;30625;52.206;21.030;2022-09-06T07:25:25;17.60;50.90
44894;DHT22;30625;52.206;21.030;2022-09-06T07:27:58;17.50;51.30
44894;DHT22;30625;52.206;21.030;2022-09-06T07:30:25;17.50;51.70
44894;DHT22;30625;52.206;21.030;2022-09-06T07:32:51;17.50;51.40
44894;DHT22;30625;52.206;21.030;2022-09-06T07:35:16;14.70;50.40
44894;DHT22;30625;52.206;21.030;2022-09-06T07:37:54;17.50;51.40
44894;DHT22;30625;52.206;21.030;2022-09-06T07:40:20;17.50;50.90
44894;DHT22;30625;52.206;21.030;2022-09-06T07:42:45;17.50;50.90
44894;DHT22;30625;52.206;21.030;2022-09-06T07:45:12;17.50;50.00
44894;DHT22;30625;52.206;21.030;2022-09-06T07:47:38;17.40;49.70
44894;DHT22;30625;52.206;21.030;2022-09-06T07:50:03;17.40;50.90
44894;DHT22;30625;52.206;21.030;2022-09-06T07:52:29;17.30;50.10
44894;DHT22;30625;52.206;21.030;2022-09-06T07:54:55;17.30;50.40
44894;DHT22;30625;52.206;21.030;2022-09-06T07:57:21;17.30;50.20
44894;DHT22;30625;52.206;21.030;2022-09-06T07:59:47;17.30;48.80
44894;DHT22;30625;52.206;21.030;2022-09-06T08:02:13;17.30;49.50
44894;DHT22;30625;52.206;21.030;2022-09-06T08:04:38;17.40;49.00
44894;DHT22;30625;52.206;21.030;2022-09-06T08:07:06;17.50;49.50
44894;DHT22;30625;52.206;21.030;2022-09-06T08:09:31;17.50;48.60
44894;DHT22;30625;52.206;21.030;2022-09-06T08:11:57;17.50;49.00
44894;DHT22;30625;52.206;21.030;2022-09-06T08:14:22;17.40;48.60
44894;DHT22;30625;52.206;21.030;2022-09-06T08:16:48;17.50;49.50
44894;DHT22;30625;52.206;21.030;2022-09-06T08:19:14;17.70;48.80
44894;DHT22;30625;52.206;21.030;2022-09-06T08:21:40;17.70;48.30
44894;DHT22;30625;52.206;21.030;2022-09-06T08:24:06;17.70;47.10
44894;DHT22;30625;52.206;21.030;2022-09-06T08:26:34;17.70;47.40
44894;DHT22;30625;52.206;21.030;2022-09-06T08:29:00;17.70;47.40
44894;DHT22;30625;52.206;21.030;2022-09-06T08:31:27;17.80;47.50
44894;DHT22;30625;52.206;21.030;2022-09-06T08:33:53;17.90;47.50
44894;DHT22;30625;52.206;21.030;2022-09-06T08:36:19;18.50;47.30
44894;DHT22;30625;52.206;21.030;2022-09-06T08:38:45;18.80;47.10
44894;DHT22;30625;52.206;21.030;2022-09-06T08:41:17;18.80;46.20
44894;DHT22;30625;52.206;21.030;2022-09-06T08:46:15;18.70;45.30
44894;DHT22;30625;52.206;21.030;2022-09-06T08:48:42;16.40;44.50
44894;DHT22;30625;52.206;21.030;2022-09-06T08:53:34;19.00;45.90
44894;DHT22;30625;52.206;21.030;2022-09-06T08:56:10;19.00;45.60
44894;DHT22;30625;52.206;21.030;2022-09-06T08:58:52;18.90;46.40
44894;DHT22;30625;52.206;21.030;2022-09-06T09:01:23;19.30;47.10
44894;DHT22;30625;52.206;21.030;2022-09-06T09:03:49;19.20;46.90
44894;DHT22;30625;52.206;21.030;2022-09-06T09:06:17;19.10;45.90
44894;DHT22;30625;52.206;21.030;2022-09-06T09:11:22;18.90;45.70
44894;DHT22;30625;52.206;21.030;2022-09-06T09:14:02;18.80;45.40
44894;DHT22;30625;52.206;21.030;2022-09-06T09:16:29;18.70;45.00
44894;DHT22;30625;52.206;21.030;2022-09-06T09:18:55;18.40;45.70
44894;DHT22;30625;52.206;21.030;2022-09-06T09:21:22;18.40;46.90
44894;DHT22;30625;52.206;21.030;2022-09-06T09:23:58;18.40;47.30
44894;DHT22;30625;52.206;21.030;2022-09-06T09:26:27;18.50;46.20
44894;DHT22;30625;52.206;21.030;2022-09-06T09:29:11;18.60;46.00
44894;DHT22;30625;52.206;21.030;2022-09-06T09:31:41;18.60;46.40
44894;DHT22;30625;52.206;21.030;2022-09-06T09:34:29;18.70;47.10
44894;DHT22;30625;52.206;21.030;2022-09-06T09:37:12;18.70;47.70
44894;DHT22;30625;52.206;21.030;2022-09-06T09:39:38;18.70;46.60
44894;DHT22;30625;52.206;21.030;2022-09-06T09:42:04;18.70;45.30
44894;DHT22;30625;52.206;21.030;2022-09-06T09:44:30;18.70;46.40
44894;DHT22;30625;52.206;21.030;2022-09-06T09:46:55;18.60;45.90
44894;DHT22;30625;52.206;21.030;2022-09-06T09:52:02;18.60;45.90
44894;DHT22;30625;52.206;21.030;2022-09-06T09:54:29;18.60;46.00
44894;DHT22;30625;52.206;21.030;2022-09-06T09:56:55;18.50;45.60
44894;DHT22;30625;52.206;21.030;2022-09-06T09:59:28;18.50;45.50
44894;DHT22;30625;52.206;21.030;2022-09-06T10:01:57;18.50;45.90
44894;DHT22;30625;52.206;21.030;2022-09-06T10:04:31;18.60;45.30
44894;DHT22;30625;52.206;21.030;2022-09-06T10:07:10;18.60;45.30
44894;DHT22;30625;52.206;21.030;2022-09-06T10:09:37;18.50;45.80
44894;DHT22;30625;52.206;21.030;2022-09-06T10:12:04;18.50;46.00
44894;DHT22;30625;52.206;21.030;2022-09-06T10:14:30;18.40;46.30
44894;DHT22;30625;52.206;21.030;2022-09-06T10:16:56;18.40;46.80
44894;DHT22;30625;52.206;21.030;2022-09-06T10:19:39;18.40;46.30
44894;DHT22;30625;52.206;21.030;2022-09-06T10:22:08;18.50;47.00
44894;DHT22;30625;52.206;21.030;2022-09-06T10:27:24;18.60;45.70
44894;DHT22;30625;52.206;21.030;2022-09-06T10:29:55;18.70;46.10
44894;DHT22;30625;52.206;21.030;2022-09-06T10:40:25;18.90;44.60
44894;DHT22;30625;52.206;21.030;2022-09-06T10:42:54;20.30;45.60
44894;DHT22;30625;52.206;21.030;2022-09-06T10:50:44;18.80;44.10
44894;DHT22;30625;52.206;21.030;2022-09-06T10:53:12;18.90;45.20
44894;DHT22;30625;52.206;21.030;2022-09-06T10:55:40;18.80;43.80
44894;DHT22;30625;52.206;21.030;2022-09-06T10:58:08;18.80;44.20
44894;DHT22;30625;52.206;21.030;2022-09-06T11:00:35;18.70;44.30
44894;DHT22;30625;52.206;21.030;2022-09-06T11:05:46;18.70;43.50
44894;DHT22;30625;52.206;21.030;2022-09-06T11:11:00;18.80;43.60
44894;DHT22;30625;52.206;21.030;2022-09-06T11:13:27;18.80;43.70
44894;DHT22;30625;52.206;21.030;2022-09-06T11:18:39;18.80;44.00
44894;DHT22;30625;52.206;21.030;2022-09-06T11:23:51;18.90;43.80
44894;DHT22;30625;52.206;21.030;2022-09-06T11:26:27;18.90;43.20
44894;DHT22;30625;52.206;21.030;2022-09-06T11:28:55;19.00;44.50
44894;DHT22;30625;52.206;21.030;2022-09-06T11:33:48;19.20;43.30
44894;DHT22;30625;52.206;21.030;2022-09-06T11:38:54;21.90;44.90
44894;DHT22;30625;52.206;21.030;2022-09-06T11:41:21;19.20;43.10
44894;DHT22;30625;52.206;21.030;2022-09-06T11:43:52;19.20;44.00
44894;DHT22;30625;52.206;21.030;2022-09-06T11:51:43;19.30;42.40
44894;DHT22;30625;52.206;21.030;2022-09-06T12:01:40;19.80;41.40
44894;DHT22;30625;52.206;21.030;2022-09-06T12:04:06;19.50;41.10
44894;DHT22;30625;52.206;21.030;2022-09-06T12:09:02;20.00;40.30
44894;DHT22;30625;52.206;21.030;2022-09-06T12:11:47;20.10;39.80
44894;DHT22;30625;52.206;21.030;2022-09-06T12:14:29;20.10;39.20
44894;DHT22;30625;52.206;21.030;2022-09-06T12:24:50;20.50;38.00
44894;DHT22;30625;52.206;21.030;2022-09-06T12:27:16;20.60;37.90
44894;DHT22;30625;52.206;21.030;2022-09-06T12:29:47;20.60;37.90
44894;DHT22;30625;52.206;21.030;2022-09-06T12:32:17;20.70;37.20
44894;DHT22;30625;52.206;21.030;2022-09-06T12:34:43;20.60;37.50
44894;DHT22;30625;52.206;21.030;2022-09-06T12:37:09;20.70;38.00
44894;DHT22;30625;52.206;21.030;2022-09-06T12:39:35;20.80;37.80
44894;DHT22;30625;52.206;21.030;2022-09-06T12:42:01;21.00;38.40
44894;DHT22;30625;52.206;21.030;2022-09-06T12:44:29;21.20;37.10
44894;DHT22;30625;52.206;21.030;2022-09-06T12:46:56;21.20;36.90
44894;DHT22;30625;52.206;21.030;2022-09-06T12:49:24;21.10;36.40
44894;DHT22;30625;52.206;21.030;2022-09-06T12:51:49;21.30;36.60
44894;DHT22;30625;52.206;21.030;2022-09-06T12:54:22;21.50;38.50
44894;DHT22;30625;52.206;21.030;2022-09-06T12:56:48;21.60;36.10
44894;DHT22;30625;52.206;21.030;2022-09-06T12:59:18;21.70;36.80
44894;DHT22;30625;52.206;21.030;2022-09-06T13:01:52;21.60;35.80
44894;DHT22;30625;52.206;21.030;2022-09-06T13:06:55;21.50;36.10
44894;DHT22;30625;52.206;21.030;2022-09-06T13:09:21;21.20;36.50
44894;DHT22;30625;52.206;21.030;2022-09-06T13:11:50;21.20;38.00
44894;DHT22;30625;52.206;21.030;2022-09-06T13:14:17;21.30;37.20
44894;DHT22;30625;52.206;21.030;2022-09-06T13:16:45;21.40;36.50
44894;DHT22;30625;52.206;21.030;2022-09-06T13:19:11;21.60;36.30
44894;DHT22;30625;52.206;21.030;2022-09-06T13:21:38;21.70;36.40
44894;DHT22;30625;52.206;21.030;2022-09-06T13:24:25;21.70;36.70
44894;DHT22;30625;52.206;21.030;2022-09-06T13:26:51;21.80;36.80
44894;DHT22;30625;52.206;21.030;2022-09-06T13:31:44;21.70;36.50
44894;DHT22;30625;52.206;21.030;2022-09-06T13:34:15;21.50;36.00
44894;DHT22;30625;52.206;21.030;2022-09-06T13:36:47;21.50;36.70
44894;DHT22;30625;52.206;21.030;2022-09-06T13:39:27;21.50;37.00
44894;DHT22;30625;52.206;21.030;2022-09-06T13:41:54;21.50;35.90
44894;DHT22;30625;52.206;21.030;2022-09-06T13:44:26;21.60;36.00
44894;DHT22;30625;52.206;21.030;2022-09-06T13:46:52;21.40;37.00
44894;DHT22;30625;52.206;21.030;2022-09-06T13:49:19;21.30;37.50
44894;DHT22;30625;52.206;21.030;2022-09-06T13:51:47;21.20;37.10
44894;DHT22;30625;52.206;21.030;2022-09-06T13:54:13;21.10;36.60
44894;DHT22;30625;52.206;21.030;2022-09-06T13:56:40;21.10;36.80
44894;DHT22;30625;52.206;21.030;2022-09-06T13:59:07;21.00;37.10
44894;DHT22;30625;52.206;21.030;2022-09-06T14:01:34;20.90;36.50
44894;DHT22;30625;52.206;21.030;2022-09-06T14:04:00;20.80;38.20
44894;DHT22;30625;52.206;21.030;2022-09-06T14:06:26;20.70;38.10
44894;DHT22;30625;52.206;21.030;2022-09-06T14:08:52;20.70;37.70
44894;DHT22;30625;52.206;21.030;2022-09-06T14:11:18;20.60;37.50
44894;DHT22;30625;52.206;21.030;2022-09-06T14:13:43;20.50;37.80
44894;DHT22;30625;52.206;21.030;2022-09-06T14:16:09;20.40;37.80
44894;DHT22;30625;52.206;21.030;2022-09-06T14:18:35;20.40;38.30
44894;DHT22;30625;52.206;21.030;2022-09-06T14:21:00;20.40;38.60
44894;DHT22;30625;52.206;21.030;2022-09-06T14:23:26;20.40;38.40
44894;DHT22;30625;52.206;21.030;2022-09-06T14:25:55;20.40;38.30
44894;DHT22;30625;52.206;21.030;2022-09-06T14:28:21;20.30;37.80
44894;DHT22;30625;52.206;21.030;2022-09-06T14:30:46;20.20;38.40
44894;DHT22;30625;52.206;21.030;2022-09-06T14:33:12;20.20;38.30
44894;DHT22;30625;52.206;21.030;2022-09-06T14:35:38;20.20;38.10
44894;DHT22;30625;52.206;21.030;2022-09-06T14:38:04;20.10;38.20
44894;DHT22;30625;52.206;21.030;2022-09-06T14:40:32;20.10;38.60
44894;DHT22;30625;52.206;21.030;2022-09-06T14:42:58;20.10;39.10
44894;DHT22;30625;52.206;21.030;2022-09-06T14:45:24;20.10;39.00
44894;DHT22;30625;52.206;21.030;2022-09-06T14:47:50;20.10;39.60
44894;DHT22;30625;52.206;21.030;2022-09-06T14:50:15;20.10;39.40
44894;DHT22;30625;52.206;21.030;2022-09-06T14:52:41;20.60;40.80
44894;DHT22;30625;52.206;21.030;2022-09-06T14:55:06;20.10;39.60
44894;DHT22;30625;52.206;21.030;2022-09-06T14:57:32;20.00;39.20
44894;DHT22;30625;52.206;21.030;2022-09-06T14:59:58;20.00;39.00
44894;DHT22;30625;52.206;21.030;2022-09-06T15:02:24;20.00;38.10
44894;DHT22;30625;52.206;21.030;2022-09-06T15:04:53;19.90;38.30
44894;DHT22;30625;52.206;21.030;2022-09-06T15:07:20;19.80;38.60
44894;DHT22;30625;52.206;21.030;2022-09-06T15:09:46;19.80;39.10
44894;DHT22;30625;52.206;21.030;2022-09-06T15:12:11;19.70;39.00
44894;DHT22;30625;52.206;21.030;2022-09-06T15:14:37;19.70;39.90
44894;DHT22;30625;52.206;21.030;2022-09-06T15:17:05;19.80;39.50
44894;DHT22;30625;52.206;21.030;2022-09-06T15:19:33;19.80;41.00
44894;DHT22;30625;52.206;21.030;2022-09-06T15:22:00;19.80;39.50
44894;DHT22;30625;52.206;21.030;2022-09-06T15:24:26;19.60;39.30
44894;DHT22;30625;52.206;21.030;2022-09-06T15:26:53;19.60;40.60
44894;DHT22;30625;52.206;21.030;2022-09-06T15:29:18;19.60;40.50
44894;DHT22;30625;52.206;21.030;2022-09-06T15:31:44;19.60;40.80
44894;DHT22;30625;52.206;21.030;2022-09-06T15:34:15;19.50;41.60
44894;DHT22;30625;52.206;21.030;2022-09-06T15:36:41;19.50;41.50
44894;DHT22;30625;52.206;21.030;2022-09-06T15:39:06;19.40;40.20
44894;DHT22;30625;52.206;21.030;2022-09-06T15:41:33;19.40;41.40
44894;DHT22;30625;52.206;21.030;2022-09-06T15:44:01;19.30;43.00
44894;DHT22;30625;52.206;21.030;2022-09-06T15:49:07;19.20;41.10
44894;DHT22;30625;52.206;21.030;2022-09-06T15:51:33;19.20;40.90
44894;DHT22;30625;52.206;21.030;2022-09-06T15:53:59;19.20;41.00
44894;DHT22;30625;52.206;21.030;2022-09-06T15:56:25;19.10;42.10
44894;DHT22;30625;52.206;21.030;2022-09-06T15:58:51;17.50;39.50
44894;DHT22;30625;52.206;21.030;2022-09-06T16:01:18;19.10;41.60
44894;DHT22;30625;52.206;21.030;2022-09-06T16:03:45;19.20;41.30
44894;DHT22;30625;52.206;21.030;2022-09-06T16:06:12;19.00;40.60
44894;DHT22;30625;52.206;21.030;2022-09-06T16:08:37;19.00;41.00
44894;DHT22;30625;52.206;21.030;2022-09-06T16:11:10;19.00;40.20
44894;DHT22;30625;52.206;21.030;2022-09-06T16:13:36;19.00;41.90
44894;DHT22;30625;52.206;21.030;2022-09-06T16:16:03;18.90;43.40
44894;DHT22;30625;52.206;21.030;2022-09-06T16:18:32;18.80;43.40
44894;DHT22;30625;52.206;21.030;2022-09-06T16:21:32;18.80;44.00
44894;DHT22;30625;52.206;21.030;2022-09-06T16:23:52;18.70;43.50
44894;DHT22;30625;52.206;21.030;2022-09-06T16:26:18;18.60;43.90
44894;DHT22;30625;52.206;21.030;2022-09-06T16:28:43;18.60;42.70
44894;DHT22;30625;52.206;21.030;2022-09-06T16:31:09;18.50;43.50
44894;DHT22;30625;52.206;21.030;2022-09-06T16:33:36;18.50;41.60
44894;DHT22;30625;52.206;21.030;2022-09-06T16:36:03;18.60;42.00
44894;DHT22;30625;52.206;21.030;2022-09-06T16:38:29;18.60;42.50
44894;DHT22;30625;52.206;21.030;2022-09-06T16:41:09;18.50;43.30
44894;DHT22;30625;52.206;21.030;2022-09-06T16:43:36;18.40;42.50
44894;DHT22;30625;52.206;21.030;2022-09-06T16:46:02;18.40;43.60
44894;DHT22;30625;52.206;21.030;2022-09-06T16:48:28;16.00;42.20
44894;DHT22;30625;52.206;21.030;2022-09-06T16:50:54;18.20;43.00
44894;DHT22;30625;52.206;21.030;2022-09-06T16:53:19;18.20;43.60
44894;DHT22;30625;52.206;21.030;2022-09-06T16:55:45;18.20;42.60
44894;DHT22;30625;52.206;21.030;2022-09-06T16:58:11;18.20;42.30
44894;DHT22;30625;52.206;21.030;2022-09-06T17:00:40;18.20;42.40
44894;DHT22;30625;52.206;21.030;2022-09-06T17:03:06;18.20;42.90